Time,TemperatureF,DewpointF,PressureIn,WindDirection,WindDirectionDegrees,WindSpeedMPH,WindSpeedGustMPH,Humidity,HourlyPrecipIn,Conditions,Clouds,dailyrainin,SoftwareType,DateUTC
2013-02-27 00:00:00,38.7,37.1,29.57,SW,230,3.0,4.0,94,0.00,,,0.00,VWS V14.01,2013-02-27 05:00:00,
2013-02-27 00:01:00,38.6,37.0,29.57,SW,218,10.0,10.0,94,0.00,,,0.00,VWS V14.01,2013-02-27 05:01:00,
2013-02-27 00:06:00,38.6,37.0,29.57,WSW,246,4.0,9.0,94,0.00,,,0.00,VWS V14.01,2013-02-27 05:06:00,
2013-02-27 00:08:00,38.7,37.1,29.57,SW,217,3.0,8.0,94,0.00,,,0.00,VWS V14.01,2013-02-27 05:08:00,
2013-02-27 00:10:00,38.7,37.1,29.57,WSW,254,4.0,9.0,94,0.00,,,0.00,VWS V14.01,2013-02-27 05:10:00,
2013-02-27 00:15:00,38.7,37.1,29.58,WSW,240,6.0,6.0,94,0.00,,,0.00,VWS V14.01,2013-02-27 05:15:00,
2013-02-27 00:20:00,38.7,37.4,29.58,SSW,205,8.0,8.0,95,0.00,,,0.00,VWS V14.01,2013-02-27 05:20:00,
2013-02-27 00:25:00,38.7,37.4,29.58,SSW,192,6.0,10.0,95,0.00,,,0.00,VWS V14.01,2013-02-27 05:25:00,
2013-02-27 00:30:00,38.8,37.5,29.58,SSW,210,6.0,11.0,95,0.00,,,0.00,VWS V14.01,2013-02-27 05:30:00,
2013-02-27 00:35:00,38.9,37.6,29.58,SSW,200,6.0,6.0,95,0.00,,,0.00,VWS V14.01,2013-02-27 05:35:00,
2013-02-27 00:40:00,38.9,37.6,29.58,WSW,243,5.0,7.0,95,0.00,,,0.00,VWS V14.01,2013-02-27 05:40:00,
2013-02-27 00:45:00,38.9,37.6,29.58,SW,225,5.0,8.0,95,0.00,,,0.00,VWS V14.01,2013-02-27 05:45:00,
2013-02-27 00:50:00,39.0,37.7,29.58,SW,215,4.0,4.0,95,0.00,,,0.00,VWS V14.01,2013-02-27 05:50:00,
2013-02-27 00:55:00,39.1,37.5,29.58,SSW,207,8.0,8.0,94,0.00,,,0.00,VWS V14.01,2013-02-27 05:55:00,
2013-02-27 01:00:00,39.2,37.6,29.58,SW,221,2.0,4.0,94,0.00,,,0.00,VWS V14.01,2013-02-27 06:00:00,
2013-02-27 01:05:00,39.2,37.6,29.58,SSW,205,6.0,6.0,94,0.00,,,0.00,VWS V14.01,2013-02-27 06:05:00,
2013-02-27 01:10:00,39.3,37.5,29.59,SSW,210,10.0,10.0,93,0.01,,,0.01,VWS V14.01,2013-02-27 06:10:00,
2013-02-27 01:15:00,39.3,37.5,29.59,WSW,248,4.0,16.0,93,0.01,,,0.01,VWS V14.01,2013-02-27 06:15:00,
2013-02-27 01:20:00,39.3,37.5,29.59,SSW,205,6.0,7.0,93,0.01,,,0.01,VWS V14.01,2013-02-27 06:20:00,
2013-02-27 01:25:00,39.3,37.5,29.60,SW,229,9.0,9.0,93,0.01,,,0.01,VWS V14.01,2013-02-27 06:25:00,
2013-02-27 01:30:00,39.3,37.2,29.60,SSW,211,11.0,13.0,92,0.01,,,0.01,VWS V14.01,2013-02-27 06:30:00,
2013-02-27 01:35:00,39.3,37.2,29.59,SW,227,4.0,7.0,92,0.01,,,0.01,VWS V14.01,2013-02-27 06:35:00,
2013-02-27 01:40:00,39.3,37.5,29.60,WSW,237,4.0,5.0,93,0.01,,,0.01,VWS V14.01,2013-02-27 06:40:00,
2013-02-27 01:45:00,39.2,37.3,29.60,SW,229,9.0,16.0,93,0.01,,,0.01,VWS V14.01,2013-02-27 06:45:00,
2013-02-27 01:50:00,39.3,37.2,29.60,West,261,6.0,11.0,92,0.01,,,0.01,VWS V14.01,2013-02-27 06:50:00,
2013-02-27 01:55:00,39.2,37.1,29.60,SW,229,3.0,8.0,92,0.01,,,0.01,VWS V14.01,2013-02-27 06:55:00,
2013-02-27 02:00:00,39.2,37.1,29.60,West,272,9.0,11.0,92,0.01,,,0.01,VWS V14.01,2013-02-27 07:00:00,
2013-02-27 02:05:00,39.2,37.1,29.61,SW,219,10.0,10.0,92,0.01,,,0.01,VWS V14.01,2013-02-27 07:05:00,
2013-02-27 02:10:00,39.2,37.1,29.61,SSW,211,5.0,7.0,92,0.00,,,0.01,VWS V14.01,2013-02-27 07:10:00,
2013-02-27 02:15:00,39.2,37.1,29.61,SW,232,5.0,7.0,92,0.00,,,0.01,VWS V14.01,2013-02-27 07:15:00,
2013-02-27 02:20:00,39.2,37.1,29.61,SW,217,3.0,14.0,92,0.00,,,0.01,VWS V14.01,2013-02-27 07:20:00,
2013-02-27 02:26:00,39.2,36.8,29.61,SW,232,3.0,9.0,91,0.00,,,0.01,VWS V14.01,2013-02-27 07:26:00,
2013-02-27 02:31:00,39.2,36.8,29.61,SW,225,4.0,14.0,91,0.00,,,0.01,VWS V14.01,2013-02-27 07:31:00,
2013-02-27 02:36:00,39.2,36.8,29.62,SW,234,6.0,13.0,91,0.00,,,0.01,VWS V14.01,2013-02-27 07:36:00,
2013-02-27 02:41:00,39.2,36.8,29.62,SW,236,8.0,12.0,91,0.00,,,0.01,VWS V14.01,2013-02-27 07:41:00,
2013-02-27 02:46:00,39.2,36.8,29.62,SW,233,5.0,7.0,91,0.00,,,0.01,VWS V14.01,2013-02-27 07:46:00,
2013-02-27 02:51:00,39.1,36.7,29.62,SSW,212,3.0,5.0,91,0.00,,,0.01,VWS V14.01,2013-02-27 07:51:00,
2013-02-27 02:56:00,39.1,36.7,29.62,West,260,12.0,14.0,91,0.00,,,0.01,VWS V14.01,2013-02-27 07:56:00,
2013-02-27 03:01:00,39.1,36.7,29.62,West,268,4.0,14.0,91,0.00,,,0.01,VWS V14.01,2013-02-27 08:01:00,
2013-02-27 03:06:00,39.1,36.7,29.62,WSW,253,13.0,18.0,91,0.00,,,0.01,VWS V14.01,2013-02-27 08:06:00,
2013-02-27 03:11:00,39.1,36.7,29.62,SW,219,15.0,21.0,91,0.00,,,0.01,VWS V14.01,2013-02-27 08:11:00,
2013-02-27 03:16:00,39.2,36.5,29.62,West,269,9.0,11.0,90,0.00,,,0.01,VWS V14.01,2013-02-27 08:16:00,
2013-02-27 03:21:00,39.1,36.4,29.62,SW,233,9.0,12.0,90,0.00,,,0.01,VWS V14.01,2013-02-27 08:21:00,
2013-02-27 03:26:00,39.1,36.4,29.63,WSW,240,6.0,18.0,90,0.00,,,0.01,VWS V14.01,2013-02-27 08:26:00,
2013-02-27 03:31:00,39.0,36.3,29.63,SW,226,7.0,10.0,90,0.00,,,0.01,VWS V14.01,2013-02-27 08:31:00,
2013-02-27 03:36:00,39.0,36.0,29.62,West,279,9.0,11.0,89,0.00,,,0.01,VWS V14.01,2013-02-27 08:36:00,
2013-02-27 03:41:00,38.9,35.9,29.63,WSW,244,3.0,10.0,89,0.00,,,0.01,VWS V14.01,2013-02-27 08:41:00,
2013-02-27 03:46:00,38.9,35.9,29.63,SW,223,4.0,6.0,89,0.00,,,0.01,VWS V14.01,2013-02-27 08:46:00,
2013-02-27 03:51:00,38.8,35.8,29.63,SW,232,5.0,5.0,89,0.00,,,0.01,VWS V14.01,2013-02-27 08:51:00,
2013-02-27 03:56:00,38.7,35.7,29.64,SSW,207,6.0,15.0,89,0.00,,,0.01,VWS V14.01,2013-02-27 08:56:00,
2013-02-27 04:01:00,38.7,35.7,29.64,WSW,248,9.0,14.0,89,0.00,,,0.01,VWS V14.01,2013-02-27 09:01:00,
2013-02-27 04:06:00,38.7,36.0,29.64,WSW,254,6.0,12.0,90,0.00,,,0.01,VWS V14.01,2013-02-27 09:06:00,
2013-02-27 04:11:00,38.6,35.9,29.64,WSW,249,5.0,11.0,90,0.00,,,0.01,VWS V14.01,2013-02-27 09:11:00,
2013-02-27 04:16:00,38.6,35.9,29.64,WSW,254,11.0,15.0,90,0.00,,,0.01,VWS V14.01,2013-02-27 09:16:00,
2013-02-27 04:21:00,38.6,35.9,29.64,SW,229,10.0,13.0,90,0.00,,,0.01,VWS V14.01,2013-02-27 09:21:00,
2013-02-27 04:26:00,38.5,35.8,29.64,SSW,204,13.0,13.0,90,0.00,,,0.01,VWS V14.01,2013-02-27 09:26:00,
2013-02-27 04:31:00,38.5,35.8,29.64,SW,232,5.0,10.0,90,0.00,,,0.01,VWS V14.01,2013-02-27 09:31:00,
2013-02-27 04:36:00,38.4,35.7,29.64,SW,223,12.0,17.0,90,0.00,,,0.01,VWS V14.01,2013-02-27 09:36:00,
2013-02-27 04:41:00,38.5,35.8,29.65,SSW,211,14.0,14.0,90,0.00,,,0.01,VWS V14.01,2013-02-27 09:41:00,
2013-02-27 04:46:00,38.4,35.7,29.64,SW,221,10.0,10.0,90,0.00,,,0.01,VWS V14.01,2013-02-27 09:46:00,
2013-02-27 04:51:00,38.4,36.0,29.65,SSW,205,7.0,7.0,91,0.00,,,0.01,VWS V14.01,2013-02-27 09:51:00,
2013-02-27 04:56:00,38.3,35.9,29.65,WSW,252,9.0,14.0,91,0.00,,,0.01,VWS V14.01,2013-02-27 09:56:00,
2013-02-27 05:02:00,38.3,35.9,29.65,West,259,9.0,14.0,91,0.00,,,0.01,VWS V14.01,2013-02-27 10:02:00,
2013-02-27 05:07:00,38.3,35.6,29.65,SW,222,9.0,12.0,90,0.00,,,0.01,VWS V14.01,2013-02-27 10:07:00,
2013-02-27 05:12:00,38.3,35.6,29.65,SSW,208,6.0,7.0,90,0.00,,,0.01,VWS V14.01,2013-02-27 10:12:00,
2013-02-27 05:17:00,38.3,35.6,29.65,WSW,250,3.0,6.0,90,0.00,,,0.01,VWS V14.01,2013-02-27 10:17:00,
2013-02-27 05:22:00,38.3,35.6,29.65,SW,230,10.0,13.0,90,0.00,,,0.01,VWS V14.01,2013-02-27 10:22:00,
2013-02-27 05:27:00,38.2,35.5,29.65,WSW,241,11.0,15.0,90,0.00,,,0.01,VWS V14.01,2013-02-27 10:27:00,
2013-02-27 05:32:00,38.2,35.5,29.65,SSW,202,10.0,10.0,90,0.00,,,0.01,VWS V14.01,2013-02-27 10:32:00,
2013-02-27 05:37:00,38.2,35.5,29.65,SW,221,9.0,12.0,90,0.00,,,0.01,VWS V14.01,2013-02-27 10:37:00,
2013-02-27 05:42:00,38.2,35.5,29.66,West,260,5.0,5.0,90,0.00,,,0.01,VWS V14.01,2013-02-27 10:42:00,
2013-02-27 05:47:00,38.1,35.4,29.66,SW,236,11.0,13.0,90,0.00,,,0.01,VWS V14.01,2013-02-27 10:47:00,
2013-02-27 05:52:00,38.2,35.5,29.66,West,261,9.0,9.0,90,0.00,,,0.01,VWS V14.01,2013-02-27 10:52:00,
2013-02-27 05:57:00,38.2,35.5,29.66,WSW,253,11.0,11.0,90,0.00,,,0.01,VWS V14.01,2013-02-27 10:57:00,
2013-02-27 06:02:00,38.2,35.5,29.66,WSW,244,3.0,6.0,90,0.00,,,0.01,VWS V14.01,2013-02-27 11:02:00,
2013-02-27 06:07:00,38.2,35.5,29.67,SW,218,5.0,10.0,90,0.00,,,0.01,VWS V14.01,2013-02-27 11:07:00,
2013-02-27 06:12:00,38.1,35.4,29.67,WSW,243,5.0,16.0,90,0.00,,,0.01,VWS V14.01,2013-02-27 11:12:00,
2013-02-27 06:17:00,38.0,35.3,29.67,SW,214,3.0,6.0,90,0.00,,,0.01,VWS V14.01,2013-02-27 11:17:00,
2013-02-27 06:22:00,38.0,35.3,29.68,SW,231,6.0,9.0,90,0.00,,,0.01,VWS V14.01,2013-02-27 11:22:00,
2013-02-27 06:27:00,37.9,35.2,29.68,SW,235,10.0,10.0,90,0.00,,,0.01,VWS V14.01,2013-02-27 11:27:00,
2013-02-27 06:32:00,37.9,35.2,29.68,WSW,257,5.0,12.0,90,0.00,,,0.01,VWS V14.01,2013-02-27 11:32:00,
2013-02-27 06:37:00,37.9,35.2,29.69,WSW,252,11.0,16.0,90,0.00,,,0.01,VWS V14.01,2013-02-27 11:37:00,
2013-02-27 06:42:00,37.9,35.2,29.69,SSW,203,14.0,16.0,90,0.00,,,0.01,VWS V14.01,2013-02-27 11:42:00,
2013-02-27 06:47:00,38.0,35.3,29.69,SSW,209,4.0,14.0,90,0.00,,,0.01,VWS V14.01,2013-02-27 11:47:00,
2013-02-27 06:53:00,37.9,35.2,29.69,SW,227,18.0,18.0,90,0.00,,,0.01,VWS V14.01,2013-02-27 11:53:00,
2013-02-27 06:58:00,37.9,35.0,29.70,West,272,4.0,6.0,89,0.00,,,0.01,VWS V14.01,2013-02-27 11:58:00,
2013-02-27 07:03:00,37.9,35.0,29.70,SSW,207,4.0,4.0,89,0.00,,,0.01,VWS V14.01,2013-02-27 12:03:00,
2013-02-27 07:08:00,37.9,35.2,29.70,SW,229,3.0,14.0,90,0.00,,,0.01,VWS V14.01,2013-02-27 12:08:00,
2013-02-27 07:13:00,37.8,35.1,29.70,SW,218,4.0,4.0,90,0.00,,,0.01,VWS V14.01,2013-02-27 12:13:00,
2013-02-27 07:18:00,37.8,35.1,29.70,WSW,249,12.0,14.0,90,0.00,,,0.01,VWS V14.01,2013-02-27 12:18:00,
2013-02-27 07:23:00,37.7,35.0,29.70,WSW,249,6.0,6.0,90,0.00,,,0.01,VWS V14.01,2013-02-27 12:23:00,
2013-02-27 07:28:00,37.7,35.0,29.71,SSW,207,12.0,12.0,90,0.00,,,0.01,VWS V14.01,2013-02-27 12:28:00,
2013-02-27 07:33:00,37.5,35.1,29.71,West,261,9.0,11.0,91,0.00,,,0.01,VWS V14.01,2013-02-27 12:33:00,
2013-02-27 07:38:00,37.3,34.9,29.71,SW,215,11.0,11.0,91,0.00,,,0.01,VWS V14.01,2013-02-27 12:38:00,
2013-02-27 07:43:00,37.1,35.0,29.71,SW,225,5.0,12.0,92,0.00,,,0.01,VWS V14.01,2013-02-27 12:43:00,
2013-02-27 07:48:00,37.0,35.2,29.71,SW,222,9.0,9.0,93,0.00,,,0.01,VWS V14.01,2013-02-27 12:48:00,
2013-02-27 07:53:00,36.8,35.0,29.72,SW,231,6.0,7.0,93,0.00,,,0.01,VWS V14.01,2013-02-27 12:53:00,
2013-02-27 07:58:00,36.8,35.0,29.72,SW,216,4.0,4.0,93,0.00,,,0.01,VWS V14.01,2013-02-27 12:58:00,
2013-02-27 08:03:00,36.7,35.1,29.72,SSW,211,6.0,6.0,94,0.00,,,0.01,VWS V14.01,2013-02-27 13:03:00,
2013-02-27 08:08:00,36.6,35.0,29.73,SSW,200,6.0,9.0,94,0.00,,,0.01,VWS V14.01,2013-02-27 13:08:00,
2013-02-27 08:13:00,36.6,35.3,29.73,WSW,249,13.0,13.0,95,0.00,,,0.01,VWS V14.01,2013-02-27 13:13:00,
2013-02-27 08:18:00,36.6,35.3,29.72,WSW,243,4.0,5.0,95,0.00,,,0.01,VWS V14.01,2013-02-27 13:18:00,
2013-02-27 08:23:00,36.6,35.3,29.73,SW,226,4.0,4.0,95,0.00,,,0.01,VWS V14.01,2013-02-27 13:23:00,
2013-02-27 08:28:00,36.6,35.3,29.73,WSW,242,2.0,3.0,95,0.00,,,0.01,VWS V14.01,2013-02-27 13:28:00,
2013-02-27 08:33:00,36.6,35.3,29.74,SW,225,6.0,9.0,95,0.01,,,0.02,VWS V14.01,2013-02-27 13:33:00,
2013-02-27 08:38:00,36.6,35.3,29.74,SW,219,5.0,5.0,95,0.01,,,0.02,VWS V14.01,2013-02-27 13:38:00,
2013-02-27 08:43:00,36.6,35.6,29.74,SW,229,4.0,9.0,96,0.01,,,0.02,VWS V14.01,2013-02-27 13:43:00,
2013-02-27 08:48:00,36.7,35.7,29.74,SW,229,3.0,6.0,96,0.01,,,0.02,VWS V14.01,2013-02-27 13:48:00,
2013-02-27 08:53:00,36.7,35.7,29.74,SW,228,9.0,11.0,96,0.01,,,0.02,VWS V14.01,2013-02-27 13:53:00,
2013-02-27 08:58:00,36.7,35.7,29.74,WSW,238,6.0,10.0,96,0.01,,,0.02,VWS V14.01,2013-02-27 13:58:00,
2013-02-27 09:04:00,36.7,35.7,29.74,SSW,206,9.0,12.0,96,0.01,,,0.02,VWS V14.01,2013-02-27 14:04:00,
2013-02-27 09:09:00,36.7,35.4,29.74,SSW,213,6.0,10.0,95,0.01,,,0.02,VWS V14.01,2013-02-27 14:09:00,
2013-02-27 09:14:00,36.6,35.3,29.75,WSW,238,5.0,10.0,95,0.01,,,0.02,VWS V14.01,2013-02-27 14:14:00,
2013-02-27 09:19:00,36.5,35.2,29.75,SW,221,6.0,11.0,95,0.01,,,0.02,VWS V14.01,2013-02-27 14:19:00,
2013-02-27 09:24:00,36.6,35.3,29.75,SW,224,3.0,12.0,95,0.01,,,0.02,VWS V14.01,2013-02-27 14:24:00,
2013-02-27 09:29:00,36.6,35.3,29.74,WSW,247,8.0,11.0,95,0.01,,,0.02,VWS V14.01,2013-02-27 14:29:00,
2013-02-27 09:34:00,36.6,35.3,29.75,SW,234,4.0,5.0,95,0.00,,,0.02,VWS V14.01,2013-02-27 14:34:00,
2013-02-27 09:39:00,36.7,36.7,29.75,SW,215,12.0,12.0,100,0.00,,,0.02,VWS V14.01,2013-02-27 14:39:00,
2013-02-27 09:44:00,36.7,36.7,29.75,SSW,208,7.0,10.0,100,0.00,,,0.02,VWS V14.01,2013-02-27 14:44:00,
2013-02-27 09:49:00,36.7,35.4,29.75,SW,222,3.0,4.0,95,0.00,,,0.02,VWS V14.01,2013-02-27 14:49:00,
2013-02-27 09:54:00,36.7,35.1,29.75,SW,226,11.0,14.0,94,0.00,,,0.02,VWS V14.01,2013-02-27 14:54:00,
2013-02-27 09:59:00,36.7,35.1,29.75,SW,234,5.0,14.0,94,0.00,,,0.02,VWS V14.01,2013-02-27 14:59:00,
2013-02-27 10:04:00,36.6,35.0,29.75,SW,236,6.0,12.0,94,0.00,,,0.02,VWS V14.01,2013-02-27 15:04:00,
2013-02-27 10:09:00,36.6,35.3,29.75,SSW,211,10.0,13.0,95,0.00,,,0.02,VWS V14.01,2013-02-27 15:09:00,
2013-02-27 10:14:00,36.7,35.1,29.75,WSW,240,4.0,7.0,94,0.00,,,0.02,VWS V14.01,2013-02-27 15:14:00,
2013-02-27 10:19:00,36.8,35.2,29.75,SW,221,7.0,7.0,94,0.00,,,0.02,VWS V14.01,2013-02-27 15:19:00,
2013-02-27 10:24:00,36.8,35.2,29.75,West,261,12.0,12.0,94,0.00,,,0.02,VWS V14.01,2013-02-27 15:24:00,
2013-02-27 10:29:00,36.8,35.0,29.75,SW,225,5.0,9.0,93,0.00,,,0.02,VWS V14.01,2013-02-27 15:29:00,
2013-02-27 10:35:00,36.9,35.1,29.76,WSW,249,5.0,7.0,93,0.00,,,0.02,VWS V14.01,2013-02-27 15:35:00,
2013-02-27 10:40:00,36.4,34.6,29.75,SW,227,4.0,5.0,93,0.00,,,0.02,VWS V14.01,2013-02-27 15:40:00,
2013-02-27 10:45:00,35.5,33.7,29.75,WSW,254,2.0,7.0,93,0.00,,,0.02,VWS V14.01,2013-02-27 15:45:00,
2013-02-27 10:50:00,34.8,33.0,29.75,WSW,244,3.0,7.0,93,0.00,,,0.02,VWS V14.01,2013-02-27 15:50:00,
2013-02-27 10:55:00,34.4,32.9,29.75,WSW,246,4.0,5.0,94,0.00,,,0.02,VWS V14.01,2013-02-27 15:55:00,
2013-02-27 11:00:00,34.4,33.1,29.76,WSW,253,2.0,5.0,95,0.00,,,0.02,VWS V14.01,2013-02-27 16:00:00,
2013-02-27 11:05:00,34.6,33.3,29.76,WSW,250,4.0,5.0,95,0.00,,,0.02,VWS V14.01,2013-02-27 16:05:00,
2013-02-27 11:10:00,34.7,33.4,29.76,West,264,2.0,2.0,95,0.00,,,0.02,VWS V14.01,2013-02-27 16:10:00,
2013-02-27 11:15:00,34.8,33.8,29.75,WSW,237,6.0,12.0,96,0.00,,,0.02,VWS V14.01,2013-02-27 16:15:00,
2013-02-27 11:20:00,34.9,33.9,29.76,SW,233,10.0,11.0,96,0.00,,,0.02,VWS V14.01,2013-02-27 16:20:00,
2013-02-27 11:25:00,35.0,34.0,29.76,WSW,248,4.0,7.0,96,0.00,,,0.02,VWS V14.01,2013-02-27 16:25:00,
2013-02-27 11:30:00,35.0,34.0,29.76,WSW,254,3.0,3.0,96,0.00,,,0.02,VWS V14.01,2013-02-27 16:30:00,
2013-02-27 11:35:00,35.3,34.3,29.76,SW,227,6.0,7.0,96,0.00,,,0.02,VWS V14.01,2013-02-27 16:35:00,
2013-02-27 11:40:00,35.5,34.5,29.76,WSW,244,4.0,5.0,96,0.00,,,0.02,VWS V14.01,2013-02-27 16:40:00,
2013-02-27 11:45:00,35.6,34.6,29.76,SW,219,6.0,10.0,96,0.00,,,0.02,VWS V14.01,2013-02-27 16:45:00,
2013-02-27 11:50:00,35.5,34.5,29.76,SW,225,7.0,13.0,96,0.00,,,0.02,VWS V14.01,2013-02-27 16:50:00,
2013-02-27 11:55:00,35.6,34.6,29.76,SW,221,5.0,9.0,96,0.00,,,0.02,VWS V14.01,2013-02-27 16:55:00,
2013-02-27 12:00:00,35.6,34.6,29.76,SW,236,4.0,5.0,96,0.00,,,0.02,VWS V14.01,2013-02-27 17:00:00,
2013-02-27 12:05:00,35.7,34.7,29.76,SW,224,2.0,7.0,96,0.00,,,0.02,VWS V14.01,2013-02-27 17:05:00,
2013-02-27 12:10:00,35.9,34.9,29.76,WSW,249,5.0,6.0,96,0.00,,,0.02,VWS V14.01,2013-02-27 17:10:00,
2013-02-27 12:15:00,35.9,34.6,29.76,WSW,246,6.0,6.0,95,0.00,,,0.02,VWS V14.01,2013-02-27 17:15:00,
2013-02-27 12:20:00,35.9,34.6,29.76,West,259,5.0,9.0,95,0.00,,,0.02,VWS V14.01,2013-02-27 17:20:00,
2013-02-27 12:25:00,35.8,34.5,29.76,WSW,244,5.0,9.0,95,0.00,,,0.02,VWS V14.01,2013-02-27 17:25:00,
2013-02-27 12:30:00,35.8,34.5,29.76,SW,235,2.0,5.0,95,0.00,,,0.02,VWS V14.01,2013-02-27 17:30:00,
2013-02-27 12:35:00,35.7,34.4,29.76,WNW,288,6.0,12.0,95,0.00,,,0.02,VWS V14.01,2013-02-27 17:35:00,
2013-02-27 12:40:00,35.7,34.4,29.76,WSW,250,3.0,4.0,95,0.00,,,0.02,VWS V14.01,2013-02-27 17:40:00,
2013-02-27 12:45:00,35.8,34.5,29.76,SW,231,6.0,13.0,95,0.00,,,0.02,VWS V14.01,2013-02-27 17:45:00,
2013-02-27 12:50:00,35.9,34.6,29.76,SW,226,3.0,7.0,95,0.00,,,0.02,VWS V14.01,2013-02-27 17:50:00,
2013-02-27 12:56:00,36.0,34.4,29.76,SSW,211,9.0,15.0,94,0.00,,,0.02,VWS V14.01,2013-02-27 17:56:00,
2013-02-27 13:01:00,35.9,33.8,29.76,WSW,238,4.0,12.0,92,0.00,,,0.02,VWS V14.01,2013-02-27 18:01:00,
2013-02-27 13:06:00,35.9,33.5,29.76,WSW,238,3.0,7.0,91,0.00,,,0.02,VWS V14.01,2013-02-27 18:06:00,
2013-02-27 13:11:00,35.9,33.5,29.76,South,176,9.0,12.0,91,0.00,,,0.02,VWS V14.01,2013-02-27 18:11:00,
2013-02-27 13:16:00,36.0,33.4,29.76,SW,232,5.0,6.0,90,0.00,,,0.02,VWS V14.01,2013-02-27 18:16:00,
2013-02-27 13:21:00,36.0,33.4,29.76,WSW,242,7.0,11.0,90,0.00,,,0.02,VWS V14.01,2013-02-27 18:21:00,
2013-02-27 13:26:00,36.1,33.5,29.76,SW,232,3.0,9.0,90,0.00,,,0.02,VWS V14.01,2013-02-27 18:26:00,
2013-02-27 13:31:00,36.0,33.1,29.76,WSW,253,5.0,5.0,89,0.00,,,0.02,VWS V14.01,2013-02-27 18:31:00,
2013-02-27 13:36:00,36.0,33.1,29.76,SSW,210,12.0,12.0,89,0.00,,,0.02,VWS V14.01,2013-02-27 18:36:00,
2013-02-27 13:41:00,36.1,33.2,29.76,WSW,238,4.0,12.0,89,0.00,,,0.02,VWS V14.01,2013-02-27 18:41:00,
2013-02-27 13:46:00,36.1,33.2,29.76,SW,229,5.0,10.0,89,0.00,,,0.02,VWS V14.01,2013-02-27 18:46:00,
2013-02-27 13:51:00,36.1,33.2,29.76,SSW,209,6.0,7.0,89,0.00,,,0.02,VWS V14.01,2013-02-27 18:51:00,
2013-02-27 13:56:00,36.1,33.2,29.76,SW,219,4.0,9.0,89,0.00,,,0.02,VWS V14.01,2013-02-27 18:56:00,
2013-02-27 14:01:00,36.1,33.2,29.76,SW,227,7.0,12.0,89,0.00,,,0.02,VWS V14.01,2013-02-27 19:01:00,
2013-02-27 14:06:00,36.1,32.9,29.76,WSW,246,7.0,10.0,88,0.00,,,0.02,VWS V14.01,2013-02-27 19:06:00,
2013-02-27 14:11:00,36.1,32.9,29.76,SW,232,10.0,12.0,88,0.00,,,0.02,VWS V14.01,2013-02-27 19:11:00,
2013-02-27 14:16:00,36.2,33.0,29.76,SSW,199,4.0,13.0,88,0.00,,,0.02,VWS V14.01,2013-02-27 19:16:00,
2013-02-27 14:21:00,36.3,32.8,29.75,SW,227,6.0,14.0,87,0.00,,,0.02,VWS V14.01,2013-02-27 19:21:00,
2013-02-27 14:26:00,36.5,33.0,29.75,WNW,284,11.0,21.0,87,0.00,,,0.02,VWS V14.01,2013-02-27 19:26:00,
2013-02-27 14:31:00,36.5,32.7,29.76,West,260,7.0,13.0,86,0.00,,,0.02,VWS V14.01,2013-02-27 19:31:00,
2013-02-27 14:36:00,36.6,32.5,29.76,SW,218,5.0,19.0,85,0.00,,,0.02,VWS V14.01,2013-02-27 19:36:00,
2013-02-27 14:41:00,36.6,32.5,29.76,SSW,211,5.0,13.0,85,0.00,,,0.02,VWS V14.01,2013-02-27 19:41:00,
2013-02-27 14:46:00,36.6,32.2,29.76,WSW,252,2.0,10.0,84,0.00,,,0.02,VWS V14.01,2013-02-27 19:46:00,
2013-02-27 14:51:00,36.5,32.4,29.76,SW,225,6.0,11.0,85,0.00,,,0.02,VWS V14.01,2013-02-27 19:51:00,
2013-02-27 14:56:00,36.5,32.4,29.76,WSW,258,8.0,12.0,85,0.00,,,0.02,VWS V14.01,2013-02-27 19:56:00,
2013-02-27 15:01:00,36.5,32.4,29.77,WSW,252,7.0,11.0,85,0.00,,,0.02,VWS V14.01,2013-02-27 20:01:00,
2013-02-27 15:06:00,36.6,32.8,29.76,SSW,200,10.0,11.0,86,0.00,,,0.02,VWS V14.01,2013-02-27 20:06:00,
2013-02-27 15:11:00,36.7,32.6,29.77,WSW,253,13.0,14.0,85,0.00,,,0.02,VWS V14.01,2013-02-27 20:11:00,
2013-02-27 15:16:00,36.6,32.2,29.76,SW,217,8.0,11.0,84,0.00,,,0.02,VWS V14.01,2013-02-27 20:16:00,
2013-02-27 15:22:00,36.7,32.6,29.77,WSW,241,3.0,7.0,85,0.00,,,0.02,VWS V14.01,2013-02-27 20:22:00,
2013-02-27 15:27:00,36.6,32.5,29.77,West,260,3.0,7.0,85,0.00,,,0.02,VWS V14.01,2013-02-27 20:27:00,
2013-02-27 15:32:00,36.7,32.6,29.77,SSW,202,9.0,11.0,85,0.00,,,0.02,VWS V14.01,2013-02-27 20:32:00,
2013-02-27 15:37:00,36.8,33.0,29.77,SSW,213,6.0,9.0,86,0.00,,,0.02,VWS V14.01,2013-02-27 20:37:00,
2013-02-27 15:42:00,37.0,33.2,29.77,SW,219,4.0,11.0,86,0.00,,,0.02,VWS V14.01,2013-02-27 20:42:00,
2013-02-27 15:47:00,37.0,32.9,29.77,WSW,240,6.0,10.0,85,0.00,,,0.02,VWS V14.01,2013-02-27 20:47:00,
2013-02-27 15:52:00,36.8,32.7,29.77,SW,232,6.0,8.0,85,0.00,,,0.02,VWS V14.01,2013-02-27 20:52:00,
2013-02-27 15:57:00,36.7,32.6,29.77,South,190,11.0,16.0,85,0.00,,,0.02,VWS V14.01,2013-02-27 20:57:00,
2013-02-27 16:02:00,36.6,32.8,29.77,SSW,207,12.0,15.0,86,0.00,,,0.02,VWS V14.01,2013-02-27 21:02:00,
2013-02-27 16:07:00,36.5,32.7,29.78,WSW,240,3.0,8.0,86,0.00,,,0.02,VWS V14.01,2013-02-27 21:07:00,
2013-02-27 16:12:00,36.6,32.8,29.78,SW,228,7.0,15.0,86,0.00,,,0.02,VWS V14.01,2013-02-27 21:12:00,
2013-02-27 16:17:00,36.6,32.8,29.78,WSW,237,7.0,7.0,86,0.00,,,0.02,VWS V14.01,2013-02-27 21:17:00,
2013-02-27 16:22:00,36.7,32.9,29.77,SW,229,4.0,5.0,86,0.00,,,0.02,VWS V14.01,2013-02-27 21:22:00,
2013-02-27 16:27:00,36.8,33.0,29.78,WSW,240,5.0,14.0,86,0.00,,,0.02,VWS V14.01,2013-02-27 21:27:00,
2013-02-27 16:32:00,36.9,33.1,29.78,West,259,4.0,6.0,86,0.00,,,0.02,VWS V14.01,2013-02-27 21:32:00,
2013-02-27 16:37:00,37.1,33.3,29.78,SSW,203,8.0,12.0,86,0.00,,,0.02,VWS V14.01,2013-02-27 21:37:00,
2013-02-27 16:42:00,37.2,33.1,29.78,SW,215,3.0,11.0,85,0.00,,,0.02,VWS V14.01,2013-02-27 21:42:00,
2013-02-27 16:47:00,37.3,33.5,29.78,West,260,8.0,9.0,86,0.00,,,0.02,VWS V14.01,2013-02-27 21:47:00,
2013-02-27 16:52:00,37.2,33.4,29.78,SW,221,11.0,11.0,86,0.00,,,0.02,VWS V14.01,2013-02-27 21:52:00,
2013-02-27 16:57:00,37.1,33.3,29.78,SW,227,7.0,7.0,86,0.00,,,0.02,VWS V14.01,2013-02-27 21:57:00,
2013-02-27 17:02:00,37.0,33.5,29.78,SW,214,11.0,13.0,87,0.00,,,0.02,VWS V14.01,2013-02-27 22:02:00,
2013-02-27 17:07:00,37.0,33.5,29.79,SSW,211,10.0,11.0,87,0.00,,,0.02,VWS V14.01,2013-02-27 22:07:00,
2013-02-27 17:12:00,37.0,33.5,29.79,SW,217,3.0,9.0,87,0.00,,,0.02,VWS V14.01,2013-02-27 22:12:00,
2013-02-27 17:17:00,37.0,33.5,29.79,SW,234,4.0,6.0,87,0.00,,,0.02,VWS V14.01,2013-02-27 22:17:00,
2013-02-27 17:22:00,36.9,33.1,29.79,SSW,209,7.0,7.0,86,0.00,,,0.02,VWS V14.01,2013-02-27 22:22:00,
2013-02-27 17:28:00,36.8,33.0,29.79,SW,219,6.0,15.0,86,0.01,,,0.03,VWS V14.01,2013-02-27 22:28:00,
2013-02-27 17:33:00,36.7,33.2,29.79,SW,222,14.0,14.0,87,0.01,,,0.03,VWS V14.01,2013-02-27 22:33:00,
2013-02-27 17:38:00,36.5,33.3,29.79,SW,236,3.0,5.0,88,0.01,,,0.03,VWS V14.01,2013-02-27 22:38:00,
2013-02-27 17:43:00,36.3,33.4,29.80,SSW,207,13.0,15.0,89,0.01,,,0.03,VWS V14.01,2013-02-27 22:43:00,
2013-02-27 17:48:00,36.1,33.2,29.80,SW,227,3.0,4.0,89,0.01,,,0.03,VWS V14.01,2013-02-27 22:48:00,
2013-02-27 17:53:00,36.0,33.4,29.80,SW,221,4.0,4.0,90,0.01,,,0.03,VWS V14.01,2013-02-27 22:53:00,
2013-02-27 17:58:00,35.9,33.3,29.80,SW,229,2.0,7.0,90,0.01,,,0.03,VWS V14.01,2013-02-27 22:58:00,
2013-02-27 18:03:00,35.8,33.4,29.80,SSW,202,8.0,9.0,91,0.01,,,0.03,VWS V14.01,2013-02-27 23:03:00,
2013-02-27 18:08:00,35.7,33.3,29.81,SW,232,3.0,5.0,91,0.01,,,0.03,VWS V14.01,2013-02-27 23:08:00,
2013-02-27 18:13:00,35.5,33.1,29.81,SSW,201,7.0,13.0,91,0.01,,,0.03,VWS V14.01,2013-02-27 23:13:00,
2013-02-27 18:18:00,35.4,33.0,29.81,SSW,210,6.0,7.0,91,0.01,,,0.03,VWS V14.01,2013-02-27 23:18:00,
2013-02-27 18:23:00,35.2,32.8,29.81,WSW,257,4.0,4.0,91,0.01,,,0.03,VWS V14.01,2013-02-27 23:23:00,
2013-02-27 18:28:00,35.1,33.0,29.81,SW,218,4.0,7.0,92,0.00,,,0.03,VWS V14.01,2013-02-27 23:28:00,
2013-02-27 18:33:00,35.1,33.0,29.81,SW,221,2.0,4.0,92,0.00,,,0.03,VWS V14.01,2013-02-27 23:33:00,
2013-02-27 18:38:00,35.0,32.9,29.82,WSW,246,5.0,7.0,92,0.00,,,0.03,VWS V14.01,2013-02-27 23:38:00,
2013-02-27 18:43:00,34.9,32.8,29.82,SW,231,5.0,6.0,92,0.00,,,0.03,VWS V14.01,2013-02-27 23:43:00,
2013-02-27 18:48:00,34.9,33.1,29.82,SW,232,4.0,4.0,93,0.00,,,0.03,VWS V14.01,2013-02-27 23:48:00,
2013-02-27 18:53:00,34.8,33.0,29.82,SW,215,4.0,7.0,93,0.00,,,0.03,VWS V14.01,2013-02-27 23:53:00,
2013-02-27 18:58:00,34.8,33.0,29.82,SSW,213,4.0,6.0,93,0.00,,,0.03,VWS V14.01,2013-02-27 23:58:00,
2013-02-27 19:04:00,34.8,33.0,29.82,SW,230,10.0,10.0,93,0.00,,,0.03,VWS V14.01,2013-02-28 00:04:00,
2013-02-27 19:09:00,34.7,32.9,29.82,SW,225,5.0,6.0,93,0.00,,,0.03,VWS V14.01,2013-02-28 00:09:00,
2013-02-27 19:14:00,34.7,32.9,29.83,SW,228,5.0,5.0,93,0.00,,,0.03,VWS V14.01,2013-02-28 00:14:00,
2013-02-27 19:19:00,34.7,32.9,29.83,SW,219,5.0,5.0,93,0.00,,,0.03,VWS V14.01,2013-02-28 00:19:00,
2013-02-27 19:24:00,34.6,32.8,29.82,SW,230,3.0,7.0,93,0.00,,,0.03,VWS V14.01,2013-02-28 00:24:00,
2013-02-27 19:29:00,34.6,32.8,29.82,SW,229,4.0,5.0,93,0.00,,,0.03,VWS V14.01,2013-02-28 00:29:00,
2013-02-27 19:34:00,34.6,32.8,29.83,SW,227,6.0,7.0,93,0.00,,,0.03,VWS V14.01,2013-02-28 00:34:00,
2013-02-27 19:39:00,34.6,32.8,29.83,SW,231,1.0,2.0,93,0.00,,,0.03,VWS V14.01,2013-02-28 00:39:00,
2013-02-27 19:44:00,34.5,32.7,29.83,SW,220,7.0,8.0,93,0.00,,,0.03,VWS V14.01,2013-02-28 00:44:00,
2013-02-27 19:49:00,34.5,32.7,29.82,SW,233,7.0,7.0,93,0.00,,,0.03,VWS V14.01,2013-02-28 00:49:00,
2013-02-27 19:54:00,34.5,32.7,29.83,SW,217,5.0,7.0,93,0.00,,,0.03,VWS V14.01,2013-02-28 00:54:00,
2013-02-27 19:59:00,34.5,32.7,29.83,SW,232,4.0,11.0,93,0.00,,,0.03,VWS V14.01,2013-02-28 00:59:00,
2013-02-27 20:04:00,34.5,32.7,29.83,SW,233,3.0,4.0,93,0.00,,,0.03,VWS V14.01,2013-02-28 01:04:00,
2013-02-27 20:09:00,34.4,32.6,29.83,SW,221,2.0,3.0,93,0.00,,,0.03,VWS V14.01,2013-02-28 01:09:00,
2013-02-27 20:14:00,34.4,32.9,29.83,SW,218,6.0,11.0,94,0.00,,,0.03,VWS V14.01,2013-02-28 01:14:00,
2013-02-27 20:19:00,34.4,32.9,29.83,SW,225,1.0,4.0,94,0.00,,,0.03,VWS V14.01,2013-02-28 01:19:00,
2013-02-27 20:24:00,34.1,32.6,29.83,WSW,238,2.0,2.0,94,0.00,,,0.03,VWS V14.01,2013-02-28 01:24:00,
2013-02-27 20:29:00,34.1,32.6,29.83,WSW,246,2.0,7.0,94,0.00,,,0.03,VWS V14.01,2013-02-28 01:29:00,
2013-02-27 20:34:00,34.1,32.6,29.83,SW,226,4.0,9.0,94,0.00,,,0.03,VWS V14.01,2013-02-28 01:34:00,
2013-02-27 20:39:00,34.1,32.8,29.83,SW,228,3.0,5.0,95,0.00,,,0.03,VWS V14.01,2013-02-28 01:39:00,
2013-02-27 20:44:00,34.2,32.9,29.82,SSW,198,6.0,11.0,95,0.00,,,0.03,VWS V14.01,2013-02-28 01:44:00,
2013-02-27 20:49:00,34.3,33.0,29.83,SSW,213,2.0,11.0,95,0.00,,,0.03,VWS V14.01,2013-02-28 01:49:00,
2013-02-27 20:54:00,34.3,33.0,29.83,SW,227,5.0,6.0,95,0.00,,,0.03,VWS V14.01,2013-02-28 01:54:00,
2013-02-27 20:59:00,34.3,33.0,29.83,SSW,207,3.0,7.0,95,0.00,,,0.03,VWS V14.01,2013-02-28 01:59:00,
2013-02-27 21:04:00,34.3,33.0,29.83,WSW,250,10.0,10.0,95,0.00,,,0.03,VWS V14.01,2013-02-28 02:04:00,
2013-02-27 21:09:00,34.3,33.0,29.82,WSW,240,6.0,11.0,95,0.00,,,0.03,VWS V14.01,2013-02-28 02:09:00,
2013-02-27 21:14:00,34.3,33.0,29.83,SW,234,7.0,7.0,95,0.00,,,0.03,VWS V14.01,2013-02-28 02:14:00,
2013-02-27 21:19:00,34.2,32.9,29.83,WSW,253,4.0,4.0,95,0.00,,,0.03,VWS V14.01,2013-02-28 02:19:00,
2013-02-27 21:24:00,33.9,32.6,29.83,West,263,4.0,4.0,95,0.00,,,0.03,VWS V14.01,2013-02-28 02:24:00,
2013-02-27 21:29:00,33.5,32.2,29.83,West,264,2.0,5.0,95,0.00,,,0.03,VWS V14.01,2013-02-28 02:29:00,
2013-02-27 21:34:00,33.3,32.0,29.84,WSW,244,6.0,6.0,95,0.00,,,0.03,VWS V14.01,2013-02-28 02:34:00,
2013-02-27 21:40:00,33.2,31.9,29.84,WSW,252,5.0,6.0,95,0.00,,,0.03,VWS V14.01,2013-02-28 02:40:00,
2013-02-27 21:45:00,33.1,31.8,29.84,WSW,250,2.0,3.0,95,0.00,,,0.03,VWS V14.01,2013-02-28 02:45:00,
2013-02-27 21:50:00,33.1,31.8,29.84,West,261,9.0,9.0,95,0.00,,,0.03,VWS V14.01,2013-02-28 02:50:00,
2013-02-27 21:55:00,33.2,31.9,29.84,WSW,252,2.0,2.0,95,0.00,,,0.03,VWS V14.01,2013-02-28 02:55:00,
2013-02-27 22:00:00,33.2,31.9,29.84,SSW,212,5.0,5.0,95,0.00,,,0.03,VWS V14.01,2013-02-28 03:00:00,
2013-02-27 22:05:00,33.2,31.9,29.84,WSW,243,6.0,10.0,95,0.00,,,0.03,VWS V14.01,2013-02-28 03:05:00,
2013-02-27 22:10:00,33.3,32.0,29.84,West,259,2.0,2.0,95,0.00,,,0.03,VWS V14.01,2013-02-28 03:10:00,
2013-02-27 22:15:00,33.3,32.0,29.84,SW,219,0.0,3.0,95,0.00,,,0.03,VWS V14.01,2013-02-28 03:15:00,
2013-02-27 22:20:00,33.3,32.0,29.84,SW,229,1.0,2.0,95,0.00,,,0.03,VWS V14.01,2013-02-28 03:20:00,
2013-02-27 22:25:00,33.2,31.9,29.84,West,272,0.0,3.0,95,0.00,,,0.03,VWS V14.01,2013-02-28 03:25:00,
2013-02-27 22:30:00,33.2,31.9,29.84,WSW,252,1.0,4.0,95,0.00,,,0.03,VWS V14.01,2013-02-28 03:30:00,
2013-02-27 22:35:00,33.2,31.9,29.84,SW,233,4.0,4.0,95,0.00,,,0.03,VWS V14.01,2013-02-28 03:35:00,
2013-02-27 22:40:00,33.1,31.8,29.85,SW,231,2.0,3.0,95,0.00,,,0.03,VWS V14.01,2013-02-28 03:40:00,
2013-02-27 22:45:00,33.0,31.5,29.85,WSW,250,2.0,3.0,94,0.00,,,0.03,VWS V14.01,2013-02-28 03:45:00,
2013-02-27 22:50:00,33.0,31.5,29.85,WSW,249,3.0,5.0,94,0.00,,,0.03,VWS V14.01,2013-02-28 03:50:00,
2013-02-27 22:55:00,33.1,31.6,29.85,West,272,8.0,8.0,94,0.00,,,0.03,VWS V14.01,2013-02-28 03:55:00,
2013-02-27 23:00:00,33.0,31.5,29.85,WSW,254,4.0,7.0,94,0.00,,,0.03,VWS V14.01,2013-02-28 04:00:00,
2013-02-27 23:05:00,33.0,31.5,29.85,WSW,249,3.0,4.0,94,0.00,,,0.03,VWS V14.01,2013-02-28 04:05:00,
2013-02-27 23:10:00,33.0,31.2,29.85,WSW,245,1.0,2.0,93,0.00,,,0.03,VWS V14.01,2013-02-28 04:10:00,
2013-02-27 23:15:00,33.0,31.2,29.85,SW,227,2.0,4.0,93,0.00,,,0.03,VWS V14.01,2013-02-28 04:15:00,
2013-02-27 23:20:00,33.0,31.2,29.85,SW,233,2.0,3.0,93,0.00,,,0.03,VWS V14.01,2013-02-28 04:20:00,
2013-02-27 23:25:00,33.0,31.2,29.85,WSW,249,3.0,5.0,93,0.00,,,0.03,VWS V14.01,2013-02-28 04:25:00,
2013-02-27 23:30:00,33.0,31.2,29.85,WSW,257,2.0,2.0,93,0.00,,,0.03,VWS V14.01,2013-02-28 04:30:00,
2013-02-27 23:35:00,33.0,31.2,29.85,WSW,257,2.0,6.0,93,0.00,,,0.03,VWS V14.01,2013-02-28 04:35:00,
2013-02-27 23:40:00,33.1,31.3,29.84,WSW,251,4.0,5.0,93,0.00,,,0.03,VWS V14.01,2013-02-28 04:40:00,
2013-02-27 23:45:00,33.0,31.2,29.84,SW,226,3.0,4.0,93,0.00,,,0.03,VWS V14.01,2013-02-28 04:45:00,
2013-02-27 23:50:00,33.0,31.2,29.84,West,260,3.0,4.0,93,0.00,,,0.03,VWS V14.01,2013-02-28 04:50:00,
2013-02-27 23:56:00,33.0,31.2,29.84,West,259,2.0,3.0,93,0.00,,,0.03,VWS V14.01,2013-02-28 04:56:00,